sensor_id;sensor_type;location;lat;lon;timestamp;pressure;altitude;pressure_sealevel;temperature;humidity
63287;BME280;49410;55.708;37.522;2023-03-21T00:01:00;99048.53;;;3.91;nan
63287;BME280;49410;55.708;37.522;2023-03-21T00:03:29;99036.44;;;3.95;nan
63287;BME280;49410;55.708;37.522;2023-03-21T00:05:55;99036.56;;;3.93;nan
63287;BME280;49410;55.708;37.522;2023-03-21T00:08:23;99039.00;;;3.96;nan
63287;BME280;49410;55.708;37.522;2023-03-21T00:11:03;99044.41;;;4.06;nan
63287;BME280;49410;55.708;37.522;2023-03-21T00:13:29;99033.00;;;4.02;nan
63287;BME280;49410;55.708;37.522;2023-03-21T00:16:05;99042.38;;;4.08;nan
63287;BME280;49410;55.708;37.522;2023-03-21T00:18:31;99024.88;;;4.02;nan
63287;BME280;49410;55.708;37.522;2023-03-21T00:21:03;99030.44;;;4.01;nan
63287;BME280;49410;55.708;37.522;2023-03-21T00:23:31;99017.47;;;4.04;nan
63287;BME280;49410;55.708;37.522;2023-03-21T00:25:58;99016.19;;;3.99;nan
63287;BME280;49410;55.708;37.522;2023-03-21T00:28:24;99009.78;;;4.00;nan
63287;BME280;49410;55.708;37.522;2023-03-21T00:30:55;99002.53;;;4.00;nan
63287;BME280;49410;55.708;37.522;2023-03-21T00:33:21;99002.97;;;3.96;nan
63287;BME280;49410;55.708;37.522;2023-03-21T00:35:49;99001.81;;;3.98;nan
63287;BME280;49410;55.708;37.522;2023-03-21T00:38:17;99008.19;;;4.07;nan
63287;BME280;49410;55.708;37.522;2023-03-21T00:40:43;99015.75;;;4.03;nan
63287;BME280;49410;55.708;37.522;2023-03-21T00:43:08;99010.50;;;4.02;nan
63287;BME280;49410;55.708;37.522;2023-03-21T00:45:36;99009.22;;;4.06;nan
63287;BME280;49410;55.708;37.522;2023-03-21T00:48:03;99006.38;;;3.98;nan
63287;BME280;49410;55.708;37.522;2023-03-21T00:50:28;99013.22;;;4.02;nan
63287;BME280;49410;55.708;37.522;2023-03-21T00:52:54;99014.22;;;4.01;nan
63287;BME280;49410;55.708;37.522;2023-03-21T00:55:19;98996.56;;;3.97;nan
63287;BME280;49410;55.708;37.522;2023-03-21T00:57:45;98981.91;;;3.89;nan
63287;BME280;49410;55.708;37.522;2023-03-21T01:00:13;99000.28;;;3.96;nan
63287;BME280;49410;55.708;37.522;2023-03-21T01:02:39;98980.34;;;3.77;nan
63287;BME280;49410;55.708;37.522;2023-03-21T01:05:20;99001.69;;;3.90;nan
63287;BME280;49410;55.708;37.522;2023-03-21T01:08:05;98992.72;;;3.89;nan
63287;BME280;49410;55.708;37.522;2023-03-21T01:10:32;98986.59;;;3.87;nan
63287;BME280;49410;55.708;37.522;2023-03-21T01:12:57;98995.16;;;3.93;nan
63287;BME280;49410;55.708;37.522;2023-03-21T01:15:23;98987.88;;;3.93;nan
63287;BME280;49410;55.708;37.522;2023-03-21T01:17:49;98977.91;;;3.94;nan
63287;BME280;49410;55.708;37.522;2023-03-21T01:20:15;98963.41;;;3.85;nan
63287;BME280;49410;55.708;37.522;2023-03-21T01:22:40;98973.50;;;3.93;nan
63287;BME280;49410;55.708;37.522;2023-03-21T01:25:06;98955.16;;;3.86;nan
63287;BME280;49410;55.708;37.522;2023-03-21T01:27:31;98974.63;;;4.00;nan
63287;BME280;49410;55.708;37.522;2023-03-21T01:29:57;98967.38;;;4.00;nan
63287;BME280;49410;55.708;37.522;2023-03-21T01:32:23;98970.75;;;4.02;nan
63287;BME280;49410;55.708;37.522;2023-03-21T01:34:48;98969.09;;;4.01;nan
63287;BME280;49410;55.708;37.522;2023-03-21T01:37:14;98931.22;;;3.82;nan
63287;BME280;49410;55.708;37.522;2023-03-21T01:39:42;98956.66;;;3.99;nan
63287;BME280;49410;55.708;37.522;2023-03-21T01:42:12;98973.03;;;4.07;nan
63287;BME280;49410;55.708;37.522;2023-03-21T01:44:57;98973.63;;;4.11;nan
63287;BME280;49410;55.708;37.522;2023-03-21T01:47:23;98976.31;;;4.11;nan
63287;BME280;49410;55.708;37.522;2023-03-21T01:49:50;98962.78;;;4.01;nan
63287;BME280;49410;55.708;37.522;2023-03-21T01:52:20;98958.38;;;4.00;nan
63287;BME280;49410;55.708;37.522;2023-03-21T01:54:48;98950.31;;;3.90;nan
63287;BME280;49410;55.708;37.522;2023-03-21T01:57:24;98961.97;;;4.00;nan
63287;BME280;49410;55.708;37.522;2023-03-21T01:59:57;98956.84;;;3.97;nan
63287;BME280;49410;55.708;37.522;2023-03-21T02:02:28;98932.25;;;3.81;nan
63287;BME280;49410;55.708;37.522;2023-03-21T02:04:56;98963.50;;;4.03;nan
63287;BME280;49410;55.708;37.522;2023-03-21T02:07:28;98951.25;;;3.99;nan
63287;BME280;49410;55.708;37.522;2023-03-21T02:09:54;98961.66;;;4.03;nan
63287;BME280;49410;55.708;37.522;2023-03-21T02:12:20;98954.69;;;4.01;nan
63287;BME280;49410;55.708;37.522;2023-03-21T02:14:48;98954.28;;;3.96;nan
63287;BME280;49410;55.708;37.522;2023-03-21T02:17:37;98957.22;;;4.02;nan
63287;BME280;49410;55.708;37.522;2023-03-21T02:28:51;98953.53;;;4.03;nan
63287;BME280;49410;55.708;37.522;2023-03-21T02:31:35;98935.47;;;3.94;nan
63287;BME280;49410;55.708;37.522;2023-03-21T02:34:23;98940.00;;;4.03;nan
63287;BME280;49410;55.708;37.522;2023-03-21T02:37:03;98932.88;;;4.02;nan
63287;BME280;49410;55.708;37.522;2023-03-21T02:40:11;98926.63;;;3.92;nan
63287;BME280;49410;55.708;37.522;2023-03-21T02:42:53;98927.91;;;3.98;nan
63287;BME280;49410;55.708;37.522;2023-03-21T02:45:24;98935.59;;;4.02;nan
63287;BME280;49410;55.708;37.522;2023-03-21T02:47:56;98932.63;;;3.96;nan
63287;BME280;49410;55.708;37.522;2023-03-21T02:50:30;98943.91;;;3.91;nan
63287;BME280;49410;55.708;37.522;2023-03-21T02:52:57;98932.63;;;3.96;nan
63287;BME280;49410;55.708;37.522;2023-03-21T02:55:27;98939.59;;;3.98;nan
63287;BME280;49410;55.708;37.522;2023-03-21T02:57:56;98919.41;;;3.93;nan
63287;BME280;49410;55.708;37.522;2023-03-21T03:00:28;98925.63;;;3.93;nan
63287;BME280;49410;55.708;37.522;2023-03-21T03:02:54;98919.41;;;3.93;nan
63287;BME280;49410;55.708;37.522;2023-03-21T03:05:26;98901.19;;;3.85;nan
63287;BME280;49410;55.708;37.522;2023-03-21T03:15:49;98894.22;;;3.82;nan
63287;BME280;49410;55.708;37.522;2023-03-21T03:24:32;98894.38;;;3.81;nan
63287;BME280;49410;55.708;37.522;2023-03-21T03:27:09;98898.47;;;3.85;nan
63287;BME280;49410;55.708;37.522;2023-03-21T03:29:39;98889.53;;;3.84;nan
63287;BME280;49410;55.708;37.522;2023-03-21T03:32:42;98903.31;;;3.91;nan
63287;BME280;49410;55.708;37.522;2023-03-21T03:35:10;98904.88;;;3.94;nan
63287;BME280;49410;55.708;37.522;2023-03-21T03:37:39;98901.72;;;3.88;nan
63287;BME280;49410;55.708;37.522;2023-03-21T03:42:55;98890.97;;;3.79;nan
63287;BME280;49410;55.708;37.522;2023-03-21T03:45:29;98885.66;;;3.77;nan
63287;BME280;49410;55.708;37.522;2023-03-21T03:48:13;98888.25;;;3.79;nan
63287;BME280;49410;55.708;37.522;2023-03-21T03:50:53;98892.06;;;3.86;nan
63287;BME280;49410;55.708;37.522;2023-03-21T03:53:31;98884.41;;;3.81;nan
63287;BME280;49410;55.708;37.522;2023-03-21T03:55:59;98896.03;;;3.92;nan
63287;BME280;49410;55.708;37.522;2023-03-21T03:58:26;98887.22;;;3.89;nan
63287;BME280;49410;55.708;37.522;2023-03-21T04:00:53;98881.53;;;3.83;nan
63287;BME280;49410;55.708;37.522;2023-03-21T04:03:19;98898.59;;;3.93;nan
63287;BME280;49410;55.708;37.522;2023-03-21T04:05:45;98883.13;;;3.85;nan
63287;BME280;49410;55.708;37.522;2023-03-21T04:08:15;98897.59;;;3.94;nan
63287;BME280;49410;55.708;37.522;2023-03-21T04:10:42;98892.06;;;3.96;nan
63287;BME280;49410;55.708;37.522;2023-03-21T04:13:08;98886.31;;;3.99;nan
63287;BME280;49410;55.708;37.522;2023-03-21T04:15:34;98886.31;;;3.99;nan
63287;BME280;49410;55.708;37.522;2023-03-21T04:18:00;98879.63;;;4.03;nan
63287;BME280;49410;55.708;37.522;2023-03-21T04:20:26;98866.72;;;3.97;nan
63287;BME280;49410;55.708;37.522;2023-03-21T04:22:52;98874.38;;;4.01;nan
63287;BME280;49410;55.708;37.522;2023-03-21T04:25:19;98882.44;;;4.11;nan
63287;BME280;49410;55.708;37.522;2023-03-21T04:27:44;98885.00;;;4.13;nan
63287;BME280;49410;55.708;37.522;2023-03-21T04:30:11;98883.88;;;4.15;nan
63287;BME280;49410;55.708;37.522;2023-03-21T04:32:37;98874.31;;;4.11;nan
63287;BME280;49410;55.708;37.522;2023-03-21T04:35:09;98885.25;;;4.19;nan
63287;BME280;49410;55.708;37.522;2023-03-21T04:37:35;98877.75;;;4.13;nan
63287;BME280;49410;55.708;37.522;2023-03-21T04:40:03;98884.72;;;4.16;nan
63287;BME280;49410;55.708;37.522;2023-03-21T04:42:32;98892.09;;;4.24;nan
63287;BME280;49410;55.708;37.522;2023-03-21T04:44:59;98888.38;;;4.25;nan
63287;BME280;49410;55.708;37.522;2023-03-21T04:47:25;98885.13;;;4.21;nan
63287;BME280;49410;55.708;37.522;2023-03-21T04:49:50;98891.22;;;4.23;nan
63287;BME280;49410;55.708;37.522;2023-03-21T04:52:18;98881.00;;;4.17;nan
63287;BME280;49410;55.708;37.522;2023-03-21T04:54:43;98885.81;;;4.23;nan
63287;BME280;49410;55.708;37.522;2023-03-21T04:57:09;98870.72;;;4.20;nan
63287;BME280;49410;55.708;37.522;2023-03-21T04:59:35;98877.09;;;4.29;nan
63287;BME280;49410;55.708;37.522;2023-03-21T05:02:00;98885.50;;;4.36;nan
63287;BME280;49410;55.708;37.522;2023-03-21T05:04:26;98874.06;;;4.32;nan
63287;BME280;49410;55.708;37.522;2023-03-21T05:06:53;98890.28;;;4.42;nan
63287;BME280;49410;55.708;37.522;2023-03-21T05:09:20;98875.50;;;4.37;nan
63287;BME280;49410;55.708;37.522;2023-03-21T05:11:46;98872.94;;;4.35;nan
63287;BME280;49410;55.708;37.522;2023-03-21T05:14:21;98867.22;;;4.38;nan
63287;BME280;49410;55.708;37.522;2023-03-21T05:16:47;98866.91;;;4.41;nan
63287;BME280;49410;55.708;37.522;2023-03-21T05:19:18;98876.84;;;4.50;nan
63287;BME280;49410;55.708;37.522;2023-03-21T05:21:45;98873.31;;;4.50;nan
63287;BME280;49410;55.708;37.522;2023-03-21T05:24:16;98863.31;;;4.50;nan
63287;BME280;49410;55.708;37.522;2023-03-21T05:26:43;98881.50;;;4.58;nan
63287;BME280;49410;55.708;37.522;2023-03-21T05:29:15;98870.13;;;4.55;nan
63287;BME280;49410;55.708;37.522;2023-03-21T05:31:40;98881.06;;;4.63;nan
63287;BME280;49410;55.708;37.522;2023-03-21T05:34:06;98872.94;;;4.63;nan
63287;BME280;49410;55.708;37.522;2023-03-21T05:36:31;98885.72;;;4.71;nan
63287;BME280;49410;55.708;37.522;2023-03-21T05:39:00;98872.31;;;4.69;nan
63287;BME280;49410;55.708;37.522;2023-03-21T05:41:26;98885.97;;;4.77;nan
63287;BME280;49410;55.708;37.522;2023-03-21T05:43:51;98867.97;;;4.58;nan
63287;BME280;49410;55.708;37.522;2023-03-21T05:46:17;98849.78;;;4.50;nan
63287;BME280;49410;55.708;37.522;2023-03-21T05:48:43;98872.63;;;4.66;nan
63287;BME280;49410;55.708;37.522;2023-03-21T05:51:08;98872.63;;;4.66;nan
63287;BME280;49410;55.708;37.522;2023-03-21T05:53:34;98873.31;;;4.68;nan
63287;BME280;49410;55.708;37.522;2023-03-21T05:56:00;98868.47;;;4.72;nan
63287;BME280;49410;55.708;37.522;2023-03-21T05:58:25;98874.34;;;4.67;nan
63287;BME280;49410;55.708;37.522;2023-03-21T06:00:51;98863.34;;;4.69;nan
63287;BME280;49410;55.708;37.522;2023-03-21T06:03:16;98882.38;;;4.77;nan
63287;BME280;49410;55.708;37.522;2023-03-21T06:05:42;98880.47;;;4.87;nan
63287;BME280;49410;55.708;37.522;2023-03-21T06:08:07;98863.13;;;4.80;nan
63287;BME280;49410;55.708;37.522;2023-03-21T06:10:33;98875.75;;;4.89;nan
63287;BME280;49410;55.708;37.522;2023-03-21T06:12:58;98867.34;;;4.92;nan
63287;BME280;49410;55.708;37.522;2023-03-21T06:15:24;98863.63;;;4.93;nan
63287;BME280;49410;55.708;37.522;2023-03-21T06:17:51;98875.53;;;5.01;nan
63287;BME280;49410;55.708;37.522;2023-03-21T06:20:16;98872.97;;;4.99;nan
63287;BME280;49410;55.708;37.522;2023-03-21T06:22:42;98853.44;;;4.95;nan
63287;BME280;49410;55.708;37.522;2023-03-21T06:25:08;98862.22;;;5.07;nan
63287;BME280;49410;55.708;37.522;2023-03-21T06:27:33;98848.69;;;5.07;nan
63287;BME280;49410;55.708;37.522;2023-03-21T06:29:59;98848.50;;;5.09;nan
63287;BME280;49410;55.708;37.522;2023-03-21T06:32:25;98849.03;;;5.12;nan
63287;BME280;49410;55.708;37.522;2023-03-21T06:34:51;98856.78;;;5.25;nan
63287;BME280;49410;55.708;37.522;2023-03-21T06:37:17;98848.56;;;5.17;nan
63287;BME280;49410;55.708;37.522;2023-03-21T06:39:43;98858.00;;;5.31;nan
63287;BME280;49410;55.708;37.522;2023-03-21T06:42:09;98847.34;;;5.29;nan
63287;BME280;49410;55.708;37.522;2023-03-21T06:44:35;98835.84;;;5.36;nan
63287;BME280;49410;55.708;37.522;2023-03-21T06:47:01;98832.78;;;5.31;nan
63287;BME280;49410;55.708;37.522;2023-03-21T06:49:26;98845.28;;;5.50;nan
63287;BME280;49410;55.708;37.522;2023-03-21T06:51:52;98827.22;;;5.40;nan
63287;BME280;49410;55.708;37.522;2023-03-21T06:54:18;98845.34;;;5.58;nan
63287;BME280;49410;55.708;37.522;2023-03-21T06:56:45;98826.19;;;5.59;nan
63287;BME280;49410;55.708;37.522;2023-03-21T06:59:10;98830.50;;;5.70;nan
63287;BME280;49410;55.708;37.522;2023-03-21T07:50:17;98989.44;;;6.44;nan
63287;BME280;49410;55.708;37.522;2023-03-21T10:43:30;98816.72;;;8.71;nan
63287;BME280;49410;55.708;37.522;2023-03-21T11:51:35;98791.50;;;8.69;nan
63287;BME280;49410;55.708;37.522;2023-03-21T13:30:46;98717.38;;;8.74;nan
63287;BME280;49410;55.708;37.522;2023-03-21T15:14:01;98699.50;;;8.39;nan
63287;BME280;49410;55.708;37.522;2023-03-21T15:26:19;98688.13;;;8.36;nan
63287;BME280;49410;55.708;37.522;2023-03-21T15:51:39;98593.94;;;8.18;nan
63287;BME280;49410;55.708;37.522;2023-03-21T15:54:10;98607.22;;;8.21;nan
63287;BME280;49410;55.708;37.522;2023-03-21T15:56:39;98583.31;;;8.08;nan
63287;BME280;49410;55.708;37.522;2023-03-21T15:59:12;98594.97;;;8.17;nan
63287;BME280;49410;55.708;37.522;2023-03-21T16:01:39;98598.78;;;8.08;nan
63287;BME280;49410;55.708;37.522;2023-03-21T16:04:08;98598.25;;;8.13;nan
63287;BME280;49410;55.708;37.522;2023-03-21T16:06:35;98598.78;;;8.08;nan
63287;BME280;49410;55.708;37.522;2023-03-21T16:11:41;98591.03;;;7.97;nan
63287;BME280;49410;55.708;37.522;2023-03-21T16:14:07;98604.22;;;8.08;nan
63287;BME280;49410;55.708;37.522;2023-03-21T16:16:33;98557.63;;;7.80;nan
63287;BME280;49410;55.708;37.522;2023-03-21T16:19:00;98611.56;;;8.07;nan
63287;BME280;49410;55.708;37.522;2023-03-21T16:21:28;98588.50;;;7.95;nan
63287;BME280;49410;55.708;37.522;2023-03-21T16:23:55;98610.34;;;8.10;nan
63287;BME280;49410;55.708;37.522;2023-03-21T16:26:30;98613.91;;;8.11;nan
63287;BME280;49410;55.708;37.522;2023-03-21T16:28:57;98610.91;;;8.05;nan
63287;BME280;49410;55.708;37.522;2023-03-21T16:31:28;98615.13;;;8.08;nan
63287;BME280;49410;55.708;37.522;2023-03-21T16:33:54;98601.91;;;7.97;nan
63287;BME280;49410;55.708;37.522;2023-03-21T16:36:25;98610.22;;;8.03;nan
63287;BME280;49410;55.708;37.522;2023-03-21T16:38:52;98621.59;;;8.07;nan
63287;BME280;49410;55.708;37.522;2023-03-21T16:41:19;98606.16;;;7.99;nan
63287;BME280;49410;55.708;37.522;2023-03-21T16:43:45;98610.41;;;8.02;nan
63287;BME280;49410;55.708;37.522;2023-03-21T16:46:21;98606.69;;;7.95;nan
63287;BME280;49410;55.708;37.522;2023-03-21T16:48:50;98614.69;;;7.96;nan
63287;BME280;49410;55.708;37.522;2023-03-21T16:51:21;98620.31;;;7.95;nan
63287;BME280;49410;55.708;37.522;2023-03-21T16:53:51;98619.66;;;7.92;nan
63287;BME280;49410;55.708;37.522;2023-03-21T16:56:25;98615.09;;;7.85;nan
63287;BME280;49410;55.708;37.522;2023-03-21T16:58:52;98592.75;;;7.66;nan
63287;BME280;49410;55.708;37.522;2023-03-21T17:01:19;98630.34;;;7.94;nan
63287;BME280;49410;55.708;37.522;2023-03-21T17:03:46;98630.72;;;7.91;nan
63287;BME280;49410;55.708;37.522;2023-03-21T17:06:19;98632.41;;;7.92;nan
63287;BME280;49410;55.708;37.522;2023-03-21T17:08:46;98633.63;;;7.89;nan
63287;BME280;49410;55.708;37.522;2023-03-21T17:11:16;98621.78;;;7.74;nan
63287;BME280;49410;55.708;37.522;2023-03-21T17:13:44;98631.47;;;7.76;nan
63287;BME280;49410;55.708;37.522;2023-03-21T17:16:12;98636.94;;;7.68;nan
63287;BME280;49410;55.708;37.522;2023-03-21T17:18:38;98646.47;;;7.72;nan
63287;BME280;49410;55.708;37.522;2023-03-21T17:21:15;98653.91;;;7.78;nan
63287;BME280;49410;55.708;37.522;2023-03-21T17:23:41;98652.38;;;7.76;nan
63287;BME280;49410;55.708;37.522;2023-03-21T17:26:06;98653.44;;;7.67;nan
63287;BME280;49410;55.708;37.522;2023-03-21T17:28:36;98643.47;;;7.51;nan
63287;BME280;49410;55.708;37.522;2023-03-21T17:31:01;98654.16;;;7.60;nan
63287;BME280;49410;55.708;37.522;2023-03-21T17:33:27;98673.03;;;7.62;nan
63287;BME280;49410;55.708;37.522;2023-03-21T17:35:52;98676.78;;;7.61;nan
63287;BME280;49410;55.708;37.522;2023-03-21T17:38:18;98667.63;;;7.54;nan
63287;BME280;49410;55.708;37.522;2023-03-21T17:40:43;98676.31;;;7.49;nan
63287;BME280;49410;55.708;37.522;2023-03-21T17:43:14;98693.16;;;7.44;nan
63287;BME280;49410;55.708;37.522;2023-03-21T17:45:41;98688.41;;;7.38;nan
63287;BME280;49410;55.708;37.522;2023-03-21T17:48:06;98696.56;;;7.38;nan
63287;BME280;49410;55.708;37.522;2023-03-21T17:50:32;98673.00;;;7.22;nan
63287;BME280;49410;55.708;37.522;2023-03-21T17:52:58;98682.19;;;7.21;nan
63287;BME280;49410;55.708;37.522;2023-03-21T17:55:24;98696.44;;;7.15;nan
63287;BME280;49410;55.708;37.522;2023-03-21T17:57:50;98683.19;;;7.04;nan
63287;BME280;49410;55.708;37.522;2023-03-21T18:00:22;98685.25;;;7.02;nan
63287;BME280;49410;55.708;37.522;2023-03-21T18:02:49;98692.38;;;7.03;nan
63287;BME280;49410;55.708;37.522;2023-03-21T18:05:15;98690.84;;;7.00;nan
63287;BME280;49410;55.708;37.522;2023-03-21T18:07:41;98678.81;;;6.86;nan
63287;BME280;49410;55.708;37.522;2023-03-21T18:10:12;98695.47;;;6.91;nan
63287;BME280;49410;55.708;37.522;2023-03-21T18:12:38;98677.97;;;6.86;nan
63287;BME280;49410;55.708;37.522;2023-03-21T18:15:06;98682.38;;;6.78;nan
63287;BME280;49410;55.708;37.522;2023-03-21T18:17:31;98691.91;;;6.82;nan
63287;BME280;49410;55.708;37.522;2023-03-21T18:19:57;98686.13;;;6.86;nan
63287;BME280;49410;55.708;37.522;2023-03-21T18:22:22;98701.06;;;6.81;nan
63287;BME280;49410;55.708;37.522;2023-03-21T18:24:48;98704.28;;;6.77;nan
63287;BME280;49410;55.708;37.522;2023-03-21T18:27:14;98704.44;;;6.59;nan
63287;BME280;49410;55.708;37.522;2023-03-21T18:29:40;98702.59;;;6.51;nan
63287;BME280;49410;55.708;37.522;2023-03-21T18:32:06;98708.69;;;6.45;nan
63287;BME280;49410;55.708;37.522;2023-03-21T18:34:32;98714.78;;;6.39;nan
63287;BME280;49410;55.708;37.522;2023-03-21T18:36:58;98719.03;;;6.33;nan
63287;BME280;49410;55.708;37.522;2023-03-21T18:39:23;98699.28;;;6.14;nan
63287;BME280;49410;55.708;37.522;2023-03-21T18:41:49;98706.25;;;6.25;nan
63287;BME280;49410;55.708;37.522;2023-03-21T18:44:14;98699.63;;;6.19;nan
63287;BME280;49410;55.708;37.522;2023-03-21T18:46:41;98724.06;;;6.19;nan
63287;BME280;49410;55.708;37.522;2023-03-21T18:49:12;98711.84;;;6.15;nan
63287;BME280;49410;55.708;37.522;2023-03-21T18:51:38;98707.25;;;6.08;nan
63287;BME280;49410;55.708;37.522;2023-03-21T18:54:04;98690.03;;;5.90;nan
63287;BME280;49410;55.708;37.522;2023-03-21T18:56:30;98727.75;;;6.02;nan
63287;BME280;49410;55.708;37.522;2023-03-21T18:58:55;98741.66;;;6.07;nan
63287;BME280;49410;55.708;37.522;2023-03-21T19:01:21;98715.78;;;5.86;nan
63287;BME280;49410;55.708;37.522;2023-03-21T19:03:46;98723.88;;;5.78;nan
63287;BME280;49410;55.708;37.522;2023-03-21T19:06:12;98723.06;;;5.86;nan
63287;BME280;49410;55.708;37.522;2023-03-21T19:08:37;98732.13;;;5.95;nan
63287;BME280;49410;55.708;37.522;2023-03-21T19:11:04;98742.09;;;5.94;nan
63287;BME280;49410;55.708;37.522;2023-03-21T19:13:31;98746.06;;;6.00;nan
63287;BME280;49410;55.708;37.522;2023-03-21T19:15:57;98723.78;;;5.96;nan
63287;BME280;49410;55.708;37.522;2023-03-21T19:18:23;98734.25;;;5.83;nan
63287;BME280;49410;55.708;37.522;2023-03-21T19:20:51;98743.13;;;5.93;nan
63287;BME280;49410;55.708;37.522;2023-03-21T19:23:18;98736.34;;;5.89;nan
63287;BME280;49410;55.708;37.522;2023-03-21T19:25:45;98739.69;;;5.83;nan
63287;BME280;49410;55.708;37.522;2023-03-21T19:28:11;98733.91;;;5.78;nan
63287;BME280;49410;55.708;37.522;2023-03-21T19:30:37;98722.69;;;5.81;nan
63287;BME280;49410;55.708;37.522;2023-03-21T19:33:03;98736.59;;;5.69;nan
63287;BME280;49410;55.708;37.522;2023-03-21T19:35:28;98738.59;;;5.67;nan
63287;BME280;49410;55.708;37.522;2023-03-21T19:37:54;98740.31;;;5.68;nan
63287;BME280;49410;55.708;37.522;2023-03-21T19:40:19;98733.00;;;5.69;nan
63287;BME280;49410;55.708;37.522;2023-03-21T19:42:45;98751.03;;;5.78;nan
63287;BME280;49410;55.708;37.522;2023-03-21T19:45:11;98750.97;;;5.70;nan
63287;BME280;49410;55.708;37.522;2023-03-21T19:47:36;98740.63;;;5.65;nan
63287;BME280;49410;55.708;37.522;2023-03-21T19:50:02;98727.75;;;5.67;nan
63287;BME280;49410;55.708;37.522;2023-03-21T19:52:27;98735.03;;;5.67;nan
63287;BME280;49410;55.708;37.522;2023-03-21T19:54:53;98737.22;;;5.63;nan
63287;BME280;49410;55.708;37.522;2023-03-21T19:57:18;98748.06;;;5.63;nan
63287;BME280;49410;55.708;37.522;2023-03-21T19:59:44;98726.31;;;5.55;nan
63287;BME280;49410;55.708;37.522;2023-03-21T20:02:10;98756.22;;;5.71;nan
63287;BME280;49410;55.708;37.522;2023-03-21T20:04:37;98735.63;;;5.52;nan
63287;BME280;49410;55.708;37.522;2023-03-21T20:07:03;98753.06;;;5.50;nan
63287;BME280;49410;55.708;37.522;2023-03-21T20:09:28;98745.75;;;5.42;nan
63287;BME280;49410;55.708;37.522;2023-03-21T20:11:55;98741.69;;;5.46;nan
63287;BME280;49410;55.708;37.522;2023-03-21T20:14:24;98756.00;;;5.56;nan
63287;BME280;49410;55.708;37.522;2023-03-21T20:16:50;98753.44;;;5.55;nan
63287;BME280;49410;55.708;37.522;2023-03-21T20:19:16;98745.22;;;5.38;nan
63287;BME280;49410;55.708;37.522;2023-03-21T20:21:44;98765.69;;;5.59;nan
63287;BME280;49410;55.708;37.522;2023-03-21T20:24:10;98758.47;;;5.50;nan
63287;BME280;49410;55.708;37.522;2023-03-21T20:26:37;98748.34;;;5.25;nan
63287;BME280;49410;55.708;37.522;2023-03-21T20:29:03;98754.38;;;5.37;nan
63287;BME280;49410;55.708;37.522;2023-03-21T20:31:30;98757.06;;;5.37;nan
63287;BME280;49410;55.708;37.522;2023-03-21T20:33:56;98767.50;;;5.50;nan
63287;BME280;49410;55.708;37.522;2023-03-21T20:36:21;98749.59;;;5.39;nan
63287;BME280;49410;55.708;37.522;2023-03-21T20:38:48;98761.97;;;5.34;nan
63287;BME280;49410;55.708;37.522;2023-03-21T20:41:14;98765.78;;;5.49;nan
63287;BME280;49410;55.708;37.522;2023-03-21T20:43:40;98778.88;;;5.54;nan
63287;BME280;49410;55.708;37.522;2023-03-21T20:46:10;98757.44;;;5.42;nan
63287;BME280;49410;55.708;37.522;2023-03-21T20:48:37;98762.91;;;5.51;nan
63287;BME280;49410;55.708;37.522;2023-03-21T20:51:09;98764.50;;;5.35;nan
63287;BME280;49410;55.708;37.522;2023-03-21T20:53:36;98766.34;;;5.35;nan
63287;BME280;49410;55.708;37.522;2023-03-21T20:56:03;98772.47;;;5.37;nan
63287;BME280;49410;55.708;37.522;2023-03-21T20:58:35;98770.09;;;5.34;nan
63287;BME280;49410;55.708;37.522;2023-03-21T21:01:02;98775.19;;;5.37;nan
63287;BME280;49410;55.708;37.522;2023-03-21T21:03:32;98772.94;;;5.32;nan
63287;BME280;49410;55.708;37.522;2023-03-21T21:06:07;98772.81;;;5.34;nan
63287;BME280;49410;55.708;37.522;2023-03-21T21:08:34;98767.22;;;5.35;nan
63287;BME280;49410;55.708;37.522;2023-03-21T21:11:00;98765.81;;;5.31;nan
63287;BME280;49410;55.708;37.522;2023-03-21T21:13:25;98754.22;;;5.21;nan
63287;BME280;49410;55.708;37.522;2023-03-21T21:15:50;98761.13;;;5.15;nan
63287;BME280;49410;55.708;37.522;2023-03-21T21:18:18;98772.72;;;5.25;nan
63287;BME280;49410;55.708;37.522;2023-03-21T21:20:43;98754.19;;;5.12;nan
63287;BME280;49410;55.708;37.522;2023-03-21T21:23:09;98772.59;;;5.27;nan
63287;BME280;49410;55.708;37.522;2023-03-21T21:25:36;98776.16;;;5.27;nan
63287;BME280;49410;55.708;37.522;2023-03-21T21:28:02;98774.44;;;5.26;nan
63287;BME280;49410;55.708;37.522;2023-03-21T21:30:28;98756.59;;;5.16;nan
63287;BME280;49410;55.708;37.522;2023-03-21T21:32:55;98776.53;;;5.33;nan
63287;BME280;49410;55.708;37.522;2023-03-21T21:35:23;98782.78;;;5.33;nan
63287;BME280;49410;55.708;37.522;2023-03-21T21:37:49;98776.44;;;5.24;nan
63287;BME280;49410;55.708;37.522;2023-03-21T21:40:15;98772.06;;;5.23;nan
63287;BME280;49410;55.708;37.522;2023-03-21T21:42:44;98776.63;;;5.23;nan
63287;BME280;49410;55.708;37.522;2023-03-21T21:45:11;98777.97;;;5.19;nan
63287;BME280;49410;55.708;37.522;2023-03-21T21:47:37;98776.94;;;5.20;nan
63287;BME280;49410;55.708;37.522;2023-03-21T21:50:03;98765.72;;;5.15;nan
63287;BME280;49410;55.708;37.522;2023-03-21T21:52:29;98776.44;;;5.24;nan
63287;BME280;49410;55.708;37.522;2023-03-21T21:54:55;98795.44;;;5.24;nan
63287;BME280;49410;55.708;37.522;2023-03-21T21:57:20;98784.59;;;5.24;nan
63287;BME280;49410;55.708;37.522;2023-03-21T21:59:47;98791.97;;;5.14;nan
63287;BME280;49410;55.708;37.522;2023-03-21T22:02:18;98768.59;;;5.13;nan
63287;BME280;49410;55.708;37.522;2023-03-21T22:04:44;98792.09;;;5.31;nan
63287;BME280;49410;55.708;37.522;2023-03-21T22:07:09;98797.69;;;5.29;nan
63287;BME280;49410;55.708;37.522;2023-03-21T22:09:41;98792.03;;;5.22;nan
63287;BME280;49410;55.708;37.522;2023-03-21T22:12:07;98795.28;;;5.26;nan
63287;BME280;49410;55.708;37.522;2023-03-21T22:14:33;98800.25;;;5.12;nan
63287;BME280;49410;55.708;37.522;2023-03-21T22:16:58;98801.50;;;5.18;nan
63287;BME280;49410;55.708;37.522;2023-03-21T22:19:25;98807.22;;;5.15;nan
63287;BME280;49410;55.708;37.522;2023-03-21T22:21:51;98808.78;;;5.18;nan
63287;BME280;49410;55.708;37.522;2023-03-21T22:24:18;98797.25;;;5.16;nan
63287;BME280;49410;55.708;37.522;2023-03-21T22:26:44;98808.91;;;5.16;nan
63287;BME280;49410;55.708;37.522;2023-03-21T22:29:11;98827.06;;;5.16;nan